Terminal Aerodrome Forecast
Issued by NWS Louisville, KY

Home | Current Version | Previous Version | Text Only | Print | Product List | Glossary On
Versions: 1 2 3 4 5 6 7 8 9 10 11 12 13 14 15 16
000
FTUS43 KLMK 061100
TAFLEX
TAF
KLEX 061139Z 0612/0712 00000KT P6SM SKC
      TEMPO 0612/0613 3SM BR SCT008
     FM061500 24006KT P6SM SCT040
     FM070000 19004KT P6SM SKC=

USA.gov is the U.S. government's official web portal to all federal, state and local government web resources and services.